Chemical Pioneer — KAFO — position and weather

sailwx.info

Track history (hours):
 
Tides and Currents Weather Stations Pressure Air Temp Water Temp Dewpoint Dewpoint Depression Visibility Wind Speed Wind Dir Waves Ship Positions

Chemical Pioneer

More information available from US FCC via Universal Licensing System and Coast Guard Vessel Documentation Center.

Last reported at 2014-Jul-30 04:28 UTC. Time now 2014-Jul-30 05:04 UTC.
Position N 41°47' W 071°23'.

Type: Tanker. MMSI: 366032000.

Date/timePositionNaut miles runAvg speedWind from/ knotsBaromVisibWave heightAir tempDewpointWater temp
2014-Jul-30 04:28N 41°47' W 071°23'0 0.0
2014-Jul-30 03:28N 41°47' W 071°23'0 0.0
2014-Jul-30 02:28N 41°47' W 071°23'0 0.0
2014-Jul-30 01:28N 41°47' W 071°23'0 0.0
2014-Jul-30 00:28N 41°47' W 071°23'0 0.0
2014-Jul-29 23:28N 41°47' W 071°23'0 0.0
2014-Jul-29 21:16N 41°47' W 071°23'0 0.0
2014-Jul-29 20:28N 41°47' W 071°23'0 0.0
2014-Jul-29 19:28N 41°47' W 071°23'0 0.0
2014-Jul-29 18:28N 41°47' W 071°23'0 0.0
2014-Jul-29 17:28N 41°47' W 071°23'0 0.0
2014-Jul-29 16:28N 41°47' W 071°23'0 0.0
2014-Jul-29 15:28N 41°47' W 071°23'0 0.0
2014-Jul-29 14:28N 41°47' W 071°23'0 0.0
2014-Jul-29 13:28N 41°47' W 071°23'0 0.0
2014-Jul-29 12:26N 41°47' W 071°23'1 1.3
2014-Jul-29 11:33N 41°46' W 071°22'1110.9
2014-Jul-29 10:33N 41°36' W 071°18'1312.8
2014-Jul-29 09:33N 41°23' W 071°22'1211.6
2014-Jul-29 08:33N 41°12' W 071°21'1212.4
2014-Jul-29 07:33N 40°60' W 071°21'1211.9
2014-Jul-29 06:33N 40°48' W 071°21'1211.7
2014-Jul-29 05:34N 40°36' W 071°24'1212.0
2014-Jul-29 04:34N 40°25' W 071°31'1414.0
2014-Jul-29 03:34N 40°12' W 071°39'1414.2
2014-Jul-29 02:33N 39°59' W 071°46'1414.0
2014-Jul-29 01:33N 39°46' W 071°53'1413.7
2014-Jul-29 00:33N 39°34' W 071°60'1413.7
2014-Jul-28 23:34N 39°21' W 072°07'1414.0
2014-Jul-28 22:33N 39°08' W 072°14'1514.6
2014-Jul-28 21:33N 38°55' W 072°21'1514.6
2014-Jul-28 20:33N 38°42' W 072°29'1514.5
2014-Jul-28 19:33N 38°28' W 072°36'1413.9
2014-Jul-28 18:33N 38°15' W 072°43'1513.8
2014-Jul-28 17:27N 38°01' W 072°50'1413.7
2014-Jul-28 16:27N 37°48' W 072°56'1313.8
2014-Jul-28 15:31N 37°37' W 073°03'3314.5
2014-Jul-28 13:16N 37°07' W 073°19'15916.4
2014-Jul-28 03:33N 34°45' W 074°49'2117.3
2014-Jul-28 02:19N 34°32' W 075°09'2217.8
2014-Jul-28 01:06N 34°18' W 075°29'1317.9
2014-Jul-28 00:22N 34°09' W 075°41'1817.5
2014-Jul-27 23:21N 33°57' W 075°57'3616.1
2014-Jul-27 21:07N 33°31' W 076°27'916.2
2014-Jul-27 20:34N 33°25' W 076°35'1716.7
2014-Jul-27 19:34N 33°14' W 076°50'1616.3
2014-Jul-27 18:33N 33°03' W 077°04'20716.4
2014-Jul-27 06:00N 30°18' W 079°30'20117.0 220 / 181015.0 1.028.925.030.0
2014-Jul-26 18:13N 26°57' W 079°40'1218.7
2014-Jul-26 17:34N 26°45' W 079°40'1918.9
2014-Jul-26 16:34N 26°26' W 079°42'1919.1
2014-Jul-26 15:33N 26°08' W 079°48'1919.3
2014-Jul-26 14:33N 25°49' W 079°51'13615.9
2014-Jul-26 06:00N 24°12' W 081°36'   230 / 211015.910.8 1.030.625.030.0
Track history (hours):
 
Tides and Currents Weather Stations Pressure Air Temp Water Temp Dewpoint Dewpoint Depression Visibility Wind Speed Wind Dir Waves Ship Positions

Chemical Pioneer

More information available from US FCC via Universal Licensing System and Coast Guard Vessel Documentation Center.

Last reported at 2014-Jul-30 04:28 UTC. Time now 2014-Jul-30 05:04 UTC.
Position N 41°47' W 071°23'.

Type: Tanker. MMSI: 366032000.

Date/timePositionNaut miles runAvg speedWind from/ knotsBaromVisibWave heightAir tempDewpointWater temp
2014-Jul-30 04:28N 41°47' W 071°23'0 0.0
2014-Jul-30 03:28N 41°47' W 071°23'0 0.0
2014-Jul-30 02:28N 41°47' W 071°23'0 0.0
2014-Jul-30 01:28N 41°47' W 071°23'0 0.0
2014-Jul-30 00:28N 41°47' W 071°23'0 0.0
2014-Jul-29 23:28N 41°47' W 071°23'0 0.0
2014-Jul-29 21:16N 41°47' W 071°23'0 0.0
2014-Jul-29 20:28N 41°47' W 071°23'0 0.0
2014-Jul-29 19:28N 41°47' W 071°23'0 0.0
2014-Jul-29 18:28N 41°47' W 071°23'0 0.0
2014-Jul-29 17:28N 41°47' W 071°23'0 0.0
2014-Jul-29 16:28N 41°47' W 071°23'0 0.0
2014-Jul-29 15:28N 41°47' W 071°23'0 0.0
2014-Jul-29 14:28N 41°47' W 071°23'0 0.0
2014-Jul-29 13:28N 41°47' W 071°23'0 0.0
2014-Jul-29 12:26N 41°47' W 071°23'1 1.3
2014-Jul-29 11:33N 41°46' W 071°22'1110.9
2014-Jul-29 10:33N 41°36' W 071°18'1312.8
2014-Jul-29 09:33N 41°23' W 071°22'1211.6
2014-Jul-29 08:33N 41°12' W 071°21'1212.4
2014-Jul-29 07:33N 40°60' W 071°21'1211.9
2014-Jul-29 06:33N 40°48' W 071°21'1211.7
2014-Jul-29 05:34N 40°36' W 071°24'1212.0
2014-Jul-29 04:34N 40°25' W 071°31'1414.0
2014-Jul-29 03:34N 40°12' W 071°39'1414.2
2014-Jul-29 02:33N 39°59' W 071°46'1414.0
2014-Jul-29 01:33N 39°46' W 071°53'1413.7
2014-Jul-29 00:33N 39°34' W 071°60'1413.7
2014-Jul-28 23:34N 39°21' W 072°07'1414.0
2014-Jul-28 22:33N 39°08' W 072°14'1514.6
2014-Jul-28 21:33N 38°55' W 072°21'1514.6
2014-Jul-28 20:33N 38°42' W 072°29'1514.5
2014-Jul-28 19:33N 38°28' W 072°36'1413.9
2014-Jul-28 18:33N 38°15' W 072°43'1513.8
2014-Jul-28 17:27N 38°01' W 072°50'1413.7
2014-Jul-28 16:27N 37°48' W 072°56'1313.8
2014-Jul-28 15:31N 37°37' W 073°03'3314.5
2014-Jul-28 13:16N 37°07' W 073°19'15916.4
2014-Jul-28 03:33N 34°45' W 074°49'2117.3
2014-Jul-28 02:19N 34°32' W 075°09'2217.8
2014-Jul-28 01:06N 34°18' W 075°29'1317.9
2014-Jul-28 00:22N 34°09' W 075°41'1817.5
2014-Jul-27 23:21N 33°57' W 075°57'3616.1
2014-Jul-27 21:07N 33°31' W 076°27'916.2
2014-Jul-27 20:34N 33°25' W 076°35'1716.7
2014-Jul-27 19:34N 33°14' W 076°50'1616.3
2014-Jul-27 18:33N 33°03' W 077°04'20716.4
2014-Jul-27 06:00N 30°18' W 079°30'20117.0 220 / 181015.0 1.028.925.030.0
2014-Jul-26 18:13N 26°57' W 079°40'1218.7
2014-Jul-26 17:34N 26°45' W 079°40'1918.9
2014-Jul-26 16:34N 26°26' W 079°42'1919.1
2014-Jul-26 15:33N 26°08' W 079°48'1919.3
2014-Jul-26 14:33N 25°49' W 079°51'13615.9
2014-Jul-26 06:00N 24°12' W 081°36'   230 / 211015.910.8 1.030.625.030.0

Dump ship's entire track history